Terminal Aerodrome Forecast
Issued by NWS

Home | Current Version | Previous Version | Text Only | Print | Product List | Glossary On
Versions: 1 2 3 4 5 6 7 8 9 10 11 12 13 14 15 16 17
424
FTUS41 KBTV 191726
TAFSLK
TAF
KSLK 191726Z 1918/2018 24010G17KT P6SM BKN040
     FM200000 25008KT P6SM SCT035
     FM200400 25007KT P6SM BKN025
     FM200700 26007KT P6SM BKN008
     FM201300 28007KT P6SM SCT015=

USA.gov is the U.S. government's official web portal to all federal, state and local government web resources and services.